createdAt,value
2018-10-11T00:03:27.256Z,15.10
2018-10-11T00:08:11.072Z,15.00
2018-10-11T00:12:54.830Z,15.00
2018-10-11T00:17:38.578Z,14.90
2018-10-11T00:22:22.612Z,14.80
2018-10-11T00:27:06.672Z,14.80
2018-10-11T00:31:50.630Z,14.70
2018-10-11T00:36:34.513Z,14.60
2018-10-11T00:41:18.352Z,14.70
2018-10-11T00:46:03.038Z,14.70
2018-10-11T00:50:46.852Z,14.60
2018-10-11T00:55:30.827Z,14.70
2018-10-11T01:00:15.488Z,14.60
2018-10-11T01:04:59.758Z,14.50
2018-10-11T01:09:43.616Z,14.50
2018-10-11T01:14:27.367Z,14.40
2018-10-11T01:19:11.147Z,14.30
2018-10-11T01:23:55.039Z,14.30
2018-10-11T01:28:38.888Z,14.30
2018-10-11T01:33:22.906Z,14.20
2018-10-11T01:38:07.164Z,14.20
2018-10-11T01:43:01.310Z,14.10
2018-10-11T01:47:45.063Z,14.10
2018-10-11T01:52:28.929Z,14.00
2018-10-11T01:57:12.849Z,13.90
2018-10-11T02:01:56.933Z,13.80
2018-10-11T02:06:40.860Z,13.80
2018-10-11T02:11:25.453Z,13.60
2018-10-11T02:16:09.142Z,13.50
2018-10-11T02:20:53.050Z,13.40
2018-10-11T02:25:37.088Z,13.40
2018-10-11T02:30:20.918Z,13.30
2018-10-11T02:35:05.846Z,13.30
2018-10-11T02:39:49.498Z,13.20
2018-10-11T02:44:33.271Z,13.10
2018-10-11T02:49:17.160Z,13.10
2018-10-11T02:54:01.160Z,13.00
2018-10-11T02:58:55.949Z,13.20
2018-10-11T03:03:39.806Z,13.20
2018-10-11T03:08:26.069Z,13.20
2018-10-11T03:13:12.077Z,13.20
2018-10-11T03:17:55.908Z,13.20
2018-10-11T03:22:39.735Z,13.20
2018-10-11T03:27:23.650Z,13.20
2018-10-11T03:32:07.684Z,13.10
2018-10-11T03:36:51.544Z,13.00
2018-10-11T03:41:36.228Z,12.90
2018-10-11T03:46:20.040Z,12.80
2018-10-11T03:51:04.305Z,12.60
2018-10-11T03:55:48.389Z,12.60
2018-10-11T04:00:32.712Z,12.60
2018-10-11T04:05:16.556Z,12.50
2018-10-11T04:10:00.474Z,12.50
2018-10-11T04:14:44.309Z,12.50
2018-10-11T04:19:28.542Z,12.50
2018-10-11T04:24:13.802Z,12.30
2018-10-11T04:28:57.548Z,12.10
2018-10-11T04:33:41.202Z,12.10
2018-10-11T04:38:25.046Z,12.20
2018-10-11T04:43:08.923Z,12.40
2018-10-11T04:47:52.782Z,12.50
2018-10-11T04:52:36.745Z,12.50
2018-10-11T04:57:20.580Z,12.60
2018-10-11T05:02:04.381Z,12.40
2018-10-11T05:06:48.460Z,12.30
2018-10-11T05:11:32.661Z,12.30
2018-10-11T05:16:17.120Z,12.30
2018-10-11T05:21:01.103Z,12.40
2018-10-11T05:25:44.992Z,12.30
2018-10-11T05:30:28.966Z,12.40
2018-10-11T05:35:12.870Z,12.60
2018-10-11T05:39:57.158Z,12.60
2018-10-11T05:44:43.273Z,12.70
2018-10-11T05:49:27.825Z,12.90
2018-10-11T05:54:11.936Z,13.00
2018-10-11T05:58:56.272Z,13.10
2018-10-11T06:03:40.203Z,13.20
2018-10-11T06:08:24.266Z,13.40
2018-10-11T06:13:09.625Z,13.40
2018-10-11T06:17:53.594Z,13.40
2018-10-11T06:28:30.360Z,13.40
2018-10-11T06:33:14.552Z,13.40
2018-10-11T06:37:59.686Z,13.70
2018-10-11T06:42:44.707Z,13.90
2018-10-11T06:47:29.055Z,14.10
2018-10-11T06:52:54.310Z,14.30
2018-10-11T06:57:44.614Z,14.50
2018-10-11T07:02:36.027Z,14.90
2018-10-11T07:07:21.683Z,15.10
2018-10-11T07:12:05.527Z,15.50
2018-10-11T07:16:49.634Z,15.80
2018-10-11T07:21:33.665Z,16.20
2018-10-11T07:26:17.875Z,16.50
2018-10-11T07:31:01.933Z,16.90
2018-10-11T07:35:45.805Z,17.30
2018-10-11T07:40:29.721Z,17.40
2018-10-11T07:45:15.968Z,17.60
2018-10-11T07:50:00.481Z,17.90
2018-10-11T07:54:44.327Z,18.30
2018-10-11T07:59:28.528Z,18.70
2018-10-11T08:04:12.462Z,19.00
2018-10-11T08:08:56.248Z,19.20
2018-10-11T08:13:40.260Z,19.40
2018-10-11T08:18:24.332Z,19.70
2018-10-11T08:23:08.227Z,20.00
2018-10-11T08:27:52.598Z,20.30
2018-10-11T08:32:36.394Z,20.50
2018-10-11T08:37:20.893Z,20.70
2018-10-11T08:42:04.812Z,20.90
2018-10-11T08:46:48.654Z,21.10
2018-10-11T08:51:32.542Z,21.30
2018-10-11T08:56:17.196Z,21.50
2018-10-11T09:01:00.982Z,21.70
2018-10-11T09:05:45.832Z,21.70
2018-10-11T09:10:38.109Z,21.90
2018-10-11T09:15:16.448Z,22.20
2018-10-11T09:20:00.517Z,22.30
2018-10-11T09:24:44.406Z,22.60
2018-10-11T09:29:28.438Z,22.70
2018-10-11T09:34:12.234Z,22.90
2018-10-11T09:38:56.137Z,23.20
2018-10-11T09:43:39.928Z,23.30
2018-10-11T09:48:27.183Z,23.80
2018-10-11T09:53:11.714Z,24.00
2018-10-11T09:57:59.286Z,23.90
2018-10-11T10:02:43.355Z,23.80
2018-10-11T10:07:27.415Z,23.80
2018-10-11T10:12:13.208Z,23.60
2018-10-11T10:17:09.988Z,23.60
2018-10-11T10:21:53.985Z,23.60
2018-10-11T10:26:42.969Z,23.70
2018-10-11T10:31:34.795Z,23.80
2018-10-11T10:36:18.906Z,23.70
2018-10-11T10:41:03.088Z,24.10
2018-10-11T10:45:46.924Z,24.20
2018-10-11T10:50:30.619Z,24.20
2018-10-11T10:55:14.388Z,24.20
2018-10-11T10:59:58.779Z,24.40
2018-10-11T11:04:42.849Z,24.40
2018-10-11T11:09:27.265Z,24.50
2018-10-11T11:14:12.195Z,24.60
2018-10-11T11:18:56.315Z,24.90
2018-10-11T11:23:40.042Z,24.80
2018-10-11T11:28:23.912Z,24.90
2018-10-11T11:33:10.986Z,25.10
2018-10-11T11:37:55.836Z,25.60
2018-10-11T11:42:39.767Z,25.40
2018-10-11T11:47:23.575Z,25.40
2018-10-11T11:52:08.107Z,25.40
2018-10-11T11:56:54.466Z,25.40
2018-10-11T12:01:38.492Z,25.40
2018-10-11T12:06:22.176Z,25.40
2018-10-11T12:11:06.315Z,25.20
2018-10-11T12:15:50.228Z,25.10
2018-10-11T12:20:35.286Z,25.40
2018-10-11T12:25:19.274Z,25.40
2018-10-11T12:30:03.034Z,25.50
2018-10-11T12:34:46.972Z,25.50
2018-10-11T12:39:31.318Z,25.60
2018-10-11T12:44:14.930Z,25.50
2018-10-11T12:48:58.610Z,25.70
2018-10-11T12:53:45.095Z,26.00
2018-10-11T12:58:26.720Z,25.80
2018-10-11T13:03:10.522Z,25.60
2018-10-11T13:07:54.253Z,25.60
2018-10-11T13:12:38.270Z,25.30
2018-10-11T13:17:22.039Z,25.30
2018-10-11T13:22:05.912Z,25.30
2018-10-11T13:26:51.561Z,25.40
2018-10-11T13:31:35.453Z,25.20
2018-10-11T13:36:19.822Z,25.10
2018-10-11T13:41:03.918Z,24.90
2018-10-11T13:45:47.970Z,25.10
2018-10-11T13:50:31.399Z,25.40
2018-10-11T13:55:15.800Z,25.30
2018-10-11T13:59:59.088Z,25.20
2018-10-11T14:04:43.906Z,25.20
2018-10-11T14:09:27.630Z,24.80
2018-10-11T14:14:11.742Z,24.70
2018-10-11T14:18:55.568Z,24.70
2018-10-11T14:23:39.502Z,24.50
2018-10-11T14:28:23.250Z,24.40
2018-10-11T14:33:07.920Z,24.30
2018-10-11T14:37:51.644Z,24.20
2018-10-11T14:42:35.518Z,24.20
2018-10-11T14:47:19.335Z,24.00
2018-10-11T14:52:03.120Z,24.00
2018-10-11T14:56:47.046Z,23.70
2018-10-11T15:01:30.844Z,23.70
2018-10-11T15:06:14.770Z,23.40
2018-10-11T15:10:58.614Z,23.20
2018-10-11T15:15:42.505Z,23.00
2018-10-11T15:20:26.209Z,22.90
2018-10-11T15:25:10.106Z,22.50
2018-10-11T15:29:54.891Z,22.20
2018-10-11T15:34:38.921Z,21.80
2018-10-11T15:39:22.834Z,21.60
2018-10-11T15:44:06.960Z,21.50
2018-10-11T15:48:52.397Z,21.30
2018-10-11T15:53:36.305Z,21.40
2018-10-11T15:58:21.227Z,21.10
2018-10-11T16:03:05.279Z,20.80
2018-10-11T16:07:49.262Z,20.60
2018-10-11T16:12:33.386Z,20.60
2018-10-11T16:17:17.269Z,20.40
2018-10-11T16:22:01.133Z,20.10
2018-10-11T16:26:45.125Z,19.70
2018-10-11T16:31:31.152Z,19.50
2018-10-11T16:36:14.945Z,19.30
2018-10-11T16:40:59.248Z,19.20
2018-10-11T16:45:43.332Z,19.00
2018-10-11T16:50:27.495Z,18.70
2018-10-11T16:55:11.447Z,18.80
2018-10-11T16:59:55.137Z,18.70
2018-10-11T17:04:39.112Z,18.60
2018-10-11T17:09:23.350Z,18.50
2018-10-11T17:14:07.294Z,18.50
2018-10-11T17:18:51.031Z,18.50
2018-10-11T17:23:34.786Z,18.70
2018-10-11T17:28:18.812Z,18.70
2018-10-11T17:33:02.496Z,18.60
2018-10-11T17:37:46.259Z,18.60
2018-10-11T17:42:30.008Z,18.60
2018-10-11T17:47:13.825Z,18.70
2018-10-11T17:51:57.654Z,18.70
2018-10-11T17:56:41.429Z,18.60
2018-10-11T18:01:25.200Z,18.40
2018-10-11T18:06:08.994Z,18.40
2018-10-11T18:10:52.875Z,18.50
2018-10-11T18:15:36.842Z,18.70
2018-10-11T18:20:20.894Z,18.70
2018-10-11T18:25:04.675Z,18.70
2018-10-11T18:29:48.783Z,18.60
2018-10-11T18:34:33.515Z,18.50
2018-10-11T18:39:17.335Z,18.40
2018-10-11T18:44:02.320Z,18.40
2018-10-11T18:48:46.159Z,18.10
2018-10-11T18:53:30.150Z,18.10
2018-10-11T18:58:14.385Z,17.90
2018-10-11T19:02:58.338Z,17.80
2018-10-11T19:07:43.717Z,17.80
2018-10-11T19:12:29.277Z,17.50
2018-10-11T19:17:13.708Z,17.60
2018-10-11T19:21:57.581Z,17.60
2018-10-11T19:26:41.623Z,17.60
2018-10-11T19:31:25.581Z,17.70
2018-10-11T19:36:09.868Z,17.80
2018-10-11T19:40:53.855Z,17.90
2018-10-11T19:45:38.696Z,18.00
2018-10-11T19:50:22.725Z,18.10
2018-10-11T19:55:07.529Z,18.20
2018-10-11T19:59:51.398Z,18.10
2018-10-11T20:04:35.343Z,18.10
2018-10-11T20:09:19.427Z,18.00
2018-10-11T20:14:03.454Z,18.00
2018-10-11T20:18:47.565Z,18.00
2018-10-11T20:23:34.331Z,18.00
2018-10-11T20:28:18.607Z,17.90
2018-10-11T20:33:03.844Z,17.70
2018-10-11T20:37:47.905Z,17.60
2018-10-11T20:42:31.955Z,17.60
2018-10-11T20:47:15.802Z,17.70
2018-10-11T20:51:59.665Z,17.60
2018-10-11T20:56:43.632Z,17.40
2018-10-11T21:01:27.517Z,17.20
2018-10-11T21:06:11.743Z,17.20
2018-10-11T21:10:56.214Z,17.20
2018-10-11T21:15:40.412Z,17.30
2018-10-11T21:20:24.893Z,17.10
2018-10-11T21:25:08.725Z,16.80
2018-10-11T21:29:54.219Z,16.70
2018-10-11T21:34:38.243Z,16.60
2018-10-11T21:39:22.422Z,16.60
2018-10-11T21:44:06.557Z,16.50
2018-10-11T21:48:50.487Z,16.60
2018-10-11T21:53:35.424Z,16.60
2018-10-11T21:58:19.513Z,16.50
2018-10-11T22:03:03.629Z,16.40
2018-10-11T22:07:50.349Z,16.40
2018-10-11T22:12:37.881Z,16.50
2018-10-11T22:17:22.222Z,16.60
2018-10-11T22:22:07.352Z,16.50
2018-10-11T22:26:51.205Z,16.50
2018-10-11T22:31:35.147Z,16.40
2018-10-11T22:36:19.827Z,16.50
2018-10-11T22:41:04.354Z,16.40
2018-10-11T22:45:48.186Z,16.30
2018-10-11T22:50:33.140Z,16.10
2018-10-11T22:55:17.729Z,16.10
2018-10-11T23:00:01.797Z,16.00
2018-10-11T23:04:45.639Z,16.00
2018-10-11T23:09:30.444Z,15.90
2018-10-11T23:14:14.204Z,15.80
2018-10-11T23:18:58.259Z,15.70
2018-10-11T23:23:43.292Z,15.50
2018-10-11T23:28:27.518Z,15.30
2018-10-11T23:33:11.292Z,15.00
2018-10-11T23:37:55.196Z,14.80
2018-10-11T23:42:39.462Z,14.70
2018-10-11T23:47:23.457Z,14.70
2018-10-11T23:52:07.636Z,14.50
2018-10-11T23:56:51.465Z,14.40
